AJI9584 KSAV-KLBB
Flight info
| Callsign | AJI9584 |
|---|---|
| Flight time | N/A |
| Altitude | 30000 |
| Route | SMALZ WIGVO DBN MINIM/N0479F320 SQS J52 TXK SPS |
| Aircraft | B738/M-SDE2E3FGHIRWXY/LB1 |
Departure
| Time | 2026-05-07 19:14 |
|---|---|
| Airport | Savannah Hilton Head International Airport (KSAV) |
Arrival
| Time | N/A |
|---|---|
| Airport | Lubbock Preston Smith International Airport (KLBB) |
| Time | Latitude | Longitude | Altitude | Speed | Heading |
|---|---|---|---|---|---|
| 2026-05-07 18:58 | 32.13528 | -81.20609 | 38 ft | 0 kts | 327° |
| 2026-05-07 19:04 | 32.13528 | -81.20608 | 39 ft | 2 kts | 327° |
| 2026-05-07 19:04 | 32.13514 | -81.20598 | 40 ft | 2 kts | 330° |
| 2026-05-07 19:04 | 32.13499 | -81.20590 | 36 ft | 2 kts | 346° |
| 2026-05-07 19:04 | 32.13483 | -81.20588 | 38 ft | 2 kts | 1° |
| 2026-05-07 19:05 | 32.13467 | -81.20590 | 39 ft | 2 kts | 16° |
| 2026-05-07 19:05 | 32.13453 | -81.20598 | 39 ft | 2 kts | 49° |
| 2026-05-07 19:05 | 32.13447 | -81.20611 | 40 ft | 0 kts | 90° |
| 2026-05-07 19:06 | 32.13447 | -81.20594 | 40 ft | 6 kts | 88° |
| 2026-05-07 19:06 | 32.13448 | -81.20515 | 42 ft | 12 kts | 91° |
| 2026-05-07 19:07 | 32.13446 | -81.20422 | 49 ft | 11 kts | 91° |
| 2026-05-07 19:07 | 32.13421 | -81.20341 | 54 ft | 11 kts | 146° |
| 2026-05-07 19:07 | 32.13336 | -81.20331 | 53 ft | 13 kts | 180° |
| 2026-05-07 19:07 | 32.13235 | -81.20330 | 49 ft | 15 kts | 180° |
| 2026-05-07 19:08 | 32.13130 | -81.20331 | 52 ft | 15 kts | 180° |
| 2026-05-07 19:08 | 32.13040 | -81.20299 | 53 ft | 13 kts | 120° |
| 2026-05-07 19:08 | 32.13028 | -81.20197 | 54 ft | 13 kts | 93° |
| 2026-05-07 19:08 | 32.13026 | -81.20095 | 56 ft | 12 kts | 91° |
| 2026-05-07 19:09 | 32.13024 | -81.19986 | 57 ft | 15 kts | 89° |
| 2026-05-07 19:09 | 32.13026 | -81.19842 | 55 ft | 20 kts | 90° |
| 2026-05-07 19:09 | 32.12990 | -81.19675 | 50 ft | 21 kts | 105° |
| 2026-05-07 19:09 | 32.12966 | -81.19505 | 58 ft | 21 kts | 90° |
| 2026-05-07 19:10 | 32.12964 | -81.19338 | 54 ft | 20 kts | 91° |
| 2026-05-07 19:10 | 32.12962 | -81.19177 | 61 ft | 19 kts | 90° |
| 2026-05-07 19:10 | 32.12960 | -81.19020 | 60 ft | 19 kts | 89° |
| 2026-05-07 19:10 | 32.12947 | -81.18898 | 58 ft | 8 kts | 133° |
| 2026-05-07 19:11 | 32.12902 | -81.18877 | 59 ft | 6 kts | 170° |
| 2026-05-07 19:11 | 32.12901 | -81.18877 | 60 ft | 0 kts | 171° |
| 2026-05-07 19:12 | 32.12893 | -81.18876 | 62 ft | 4 kts | 174° |
| 2026-05-07 19:12 | 32.12854 | -81.18897 | 62 ft | 9 kts | 241° |
| 2026-05-07 19:12 | 32.12850 | -81.18911 | 64 ft | 0 kts | 261° |
| 2026-05-07 19:12 | 32.12851 | -81.18912 | 64 ft | 0 kts | 266° |
| 2026-05-07 19:13 | 32.12851 | -81.19091 | 64 ft | 55 kts | 270° |
| 2026-05-07 19:13 | 32.12858 | -81.19812 | 53 ft | 119 kts | 270° |
| 2026-05-07 19:13 | 32.12875 | -81.20996 | 152 ft | 163 kts | 269° |
| 2026-05-07 19:14 | 32.12941 | -81.22333 | 964 ft | 162 kts | 270° |
| 2026-05-07 19:14 | 32.13100 | -81.23630 | 1911 ft | 160 kts | 290° |
| 2026-05-07 19:14 | 32.13858 | -81.24695 | 2442 ft | 191 kts | 313° |
| 2026-05-07 19:14 | 32.15013 | -81.25686 | 2627 ft | 218 kts | 316° |
| 2026-05-07 19:15 | 32.16293 | -81.26755 | 2960 ft | 235 kts | 317° |
| 2026-05-07 19:15 | 32.17692 | -81.27919 | 3356 ft | 252 kts | 317° |
| 2026-05-07 19:15 | 32.19128 | -81.29101 | 4249 ft | 248 kts | 317° |
| 2026-05-07 19:15 | 32.20539 | -81.30258 | 5179 ft | 247 kts | 317° |
| 2026-05-07 19:16 | 32.21959 | -81.31431 | 5945 ft | 250 kts | 317° |
| 2026-05-07 19:16 | 32.23396 | -81.32622 | 6687 ft | 253 kts | 317° |
| 2026-05-07 19:16 | 32.24845 | -81.33825 | 7388 ft | 257 kts | 317° |
| 2026-05-07 19:16 | 32.26320 | -81.35050 | 8082 ft | 261 kts | 317° |
| 2026-05-07 19:17 | 32.27797 | -81.36278 | 8788 ft | 265 kts | 317° |
| 2026-05-07 19:17 | 32.29315 | -81.37542 | 9498 ft | 269 kts | 317° |
| 2026-05-07 19:17 | 32.30855 | -81.38824 | 10173 ft | 272 kts | 317° |
| 2026-05-07 19:17 | 32.32451 | -81.40159 | 10456 ft | 292 kts | 317° |
| 2026-05-07 19:18 | 32.34167 | -81.41598 | 10633 ft | 313 kts | 317° |
| 2026-05-07 19:18 | 32.36005 | -81.43136 | 10786 ft | 333 kts | 318° |
| 2026-05-07 19:18 | 32.37955 | -81.44760 | 10917 ft | 352 kts | 319° |
| 2026-05-07 19:18 | 32.40004 | -81.46465 | 11040 ft | 368 kts | 319° |
| 2026-05-07 19:19 | 32.42129 | -81.48234 | 11387 ft | 375 kts | 319° |
| 2026-05-07 19:19 | 32.44262 | -81.50031 | 11920 ft | 375 kts | 316° |
| 2026-05-07 19:19 | 32.45994 | -81.52268 | 12443 ft | 365 kts | 297° |
| 2026-05-07 19:19 | 32.47003 | -81.54955 | 13014 ft | 361 kts | 285° |
| 2026-05-07 19:20 | 32.47458 | -81.57865 | 13524 ft | 361 kts | 272° |
| 2026-05-07 19:20 | 32.47416 | -81.60844 | 13986 ft | 362 kts | 268° |
| 2026-05-07 19:20 | 32.47290 | -81.63837 | 14423 ft | 364 kts | 267° |
| 2026-05-07 19:20 | 32.47151 | -81.66837 | 14929 ft | 364 kts | 267° |
| 2026-05-07 19:21 | 32.47017 | -81.69811 | 15545 ft | 361 kts | 267° |
| 2026-05-07 19:21 | 32.46891 | -81.72795 | 15946 ft | 364 kts | 268° |
| 2026-05-07 19:21 | 32.46771 | -81.75801 | 16322 ft | 367 kts | 268° |
| 2026-05-07 19:21 | 32.46655 | -81.78827 | 16738 ft | 368 kts | 268° |
| 2026-05-07 19:22 | 32.46540 | -81.81862 | 17166 ft | 369 kts | 268° |
| 2026-05-07 19:22 | 32.46426 | -81.84906 | 17568 ft | 371 kts | 268° |
| 2026-05-07 19:22 | 32.46310 | -81.87962 | 17953 ft | 373 kts | 268° |
| 2026-05-07 19:22 | 32.46193 | -81.91039 | 18316 ft | 375 kts | 268° |
| 2026-05-07 19:23 | 32.46075 | -81.94133 | 18671 ft | 376 kts | 268° |
| 2026-05-07 19:23 | 32.45958 | -81.97190 | 18991 ft | 377 kts | 268° |
| 2026-05-07 19:23 | 32.45837 | -82.00300 | 19297 ft | 379 kts | 268° |
| 2026-05-07 19:23 | 32.45764 | -82.03422 | 19611 ft | 380 kts | 271° |
| 2026-05-07 19:24 | 32.46019 | -82.06546 | 19929 ft | 382 kts | 278° |
| 2026-05-07 19:24 | 32.46475 | -82.09656 | 20247 ft | 383 kts | 278° |
| 2026-05-07 19:24 | 32.46917 | -82.12775 | 20536 ft | 385 kts | 277° |
| 2026-05-07 19:24 | 32.47353 | -82.15922 | 20835 ft | 386 kts | 277° |
| 2026-05-07 19:25 | 32.47783 | -82.19064 | 21117 ft | 387 kts | 277° |
| 2026-05-07 19:25 | 32.48213 | -82.22222 | 21370 ft | 389 kts | 277° |
| 2026-05-07 19:25 | 32.48637 | -82.25356 | 21621 ft | 391 kts | 277° |
| 2026-05-07 19:25 | 32.49067 | -82.28542 | 21894 ft | 392 kts | 277° |
| 2026-05-07 19:26 | 32.49497 | -82.31731 | 22153 ft | 393 kts | 277° |
| 2026-05-07 19:26 | 32.49929 | -82.34940 | 22403 ft | 394 kts | 277° |
| 2026-05-07 19:26 | 32.50362 | -82.38158 | 22644 ft | 396 kts | 277° |
| 2026-05-07 19:26 | 32.50795 | -82.41385 | 22862 ft | 398 kts | 277° |
| 2026-05-07 19:27 | 32.51229 | -82.44628 | 23071 ft | 400 kts | 277° |
| 2026-05-07 19:27 | 32.51664 | -82.47887 | 23277 ft | 401 kts | 277° |
| 2026-05-07 19:27 | 32.52100 | -82.51157 | 23494 ft | 402 kts | 277° |
| 2026-05-07 19:27 | 32.52536 | -82.54433 | 23667 ft | 403 kts | 277° |
| 2026-05-07 19:28 | 32.52973 | -82.57720 | 23836 ft | 404 kts | 277° |
| 2026-05-07 19:28 | 32.53410 | -82.61022 | 24007 ft | 405 kts | 277° |
| 2026-05-07 19:28 | 32.53847 | -82.64325 | 24179 ft | 406 kts | 277° |
| 2026-05-07 19:28 | 32.54278 | -82.67591 | 24338 ft | 407 kts | 277° |
| 2026-05-07 19:29 | 32.54716 | -82.70913 | 24492 ft | 408 kts | 277° |
| 2026-05-07 19:29 | 32.55154 | -82.74243 | 24639 ft | 410 kts | 277° |
| 2026-05-07 19:29 | 32.55592 | -82.77584 | 24790 ft | 411 kts | 277° |
| 2026-05-07 19:29 | 32.56030 | -82.80932 | 24961 ft | 411 kts | 276° |
| 2026-05-07 19:30 | 32.56531 | -82.84269 | 25126 ft | 413 kts | 280° |
| 2026-05-07 19:30 | 32.57221 | -82.87578 | 25269 ft | 414 kts | 281° |
| 2026-05-07 19:30 | 32.57926 | -82.90887 | 25401 ft | 415 kts | 281° |
| 2026-05-07 19:30 | 32.58635 | -82.94208 | 25532 ft | 415 kts | 281° |
| 2026-05-07 19:31 | 32.59343 | -82.97534 | 25656 ft | 416 kts | 281° |
| 2026-05-07 19:31 | 32.60046 | -83.00862 | 25750 ft | 417 kts | 281° |
| 2026-05-07 19:31 | 32.60747 | -83.04193 | 25844 ft | 417 kts | 281° |
| 2026-05-07 19:31 | 32.61450 | -83.07547 | 25932 ft | 418 kts | 281° |
| 2026-05-07 19:32 | 32.62150 | -83.10902 | 26024 ft | 418 kts | 281° |
| 2026-05-07 19:32 | 32.62849 | -83.14252 | 26124 ft | 418 kts | 280° |
| 2026-05-07 19:32 | 32.63536 | -83.17552 | 26293 ft | 416 kts | 280° |
| 2026-05-07 19:32 | 32.64228 | -83.20884 | 26514 ft | 414 kts | 280° |
| 2026-05-07 19:33 | 32.64915 | -83.24198 | 26678 ft | 413 kts | 280° |
| 2026-05-07 19:33 | 32.65602 | -83.27515 | 26792 ft | 413 kts | 280° |
| 2026-05-07 19:33 | 32.66286 | -83.30825 | 26910 ft | 413 kts | 280° |
| 2026-05-07 19:33 | 32.66970 | -83.34134 | 27059 ft | 412 kts | 280° |
| 2026-05-07 19:34 | 32.67651 | -83.37438 | 27226 ft | 411 kts | 280° |
| 2026-05-07 19:34 | 32.68330 | -83.40737 | 27400 ft | 411 kts | 280° |
| 2026-05-07 19:34 | 32.69007 | -83.44027 | 27560 ft | 410 kts | 280° |
| 2026-05-07 19:34 | 32.69681 | -83.47310 | 27706 ft | 410 kts | 280° |
| 2026-05-07 19:35 | 32.70354 | -83.50595 | 27870 ft | 409 kts | 280° |
| 2026-05-07 19:35 | 32.71016 | -83.53828 | 28052 ft | 408 kts | 280° |
| 2026-05-07 19:35 | 32.71683 | -83.57086 | 28364 ft | 404 kts | 280° |
| 2026-05-07 19:35 | 32.72345 | -83.60326 | 28626 ft | 402 kts | 280° |
| 2026-05-07 19:36 | 32.73004 | -83.63559 | 28863 ft | 401 kts | 279° |
| 2026-05-07 19:36 | 32.73658 | -83.66769 | 29204 ft | 397 kts | 279° |
| 2026-05-07 19:36 | 32.74304 | -83.69943 | 29436 ft | 395 kts | 279° |
| 2026-05-07 19:36 | 32.74948 | -83.73119 | 29581 ft | 396 kts | 279° |
| 2026-05-07 19:37 | 32.75593 | -83.76301 | 29745 ft | 395 kts | 279° |
| 2026-05-07 19:37 | 32.76234 | -83.79470 | 29944 ft | 394 kts | 279° |
| 2026-05-07 19:37 | 32.77518 | -83.85832 | 29943 ft | 395 kts | 279° |
| 2026-05-07 19:38 | 32.78779 | -83.92077 | 29943 ft | 385 kts | 279° |
| 2026-05-07 19:38 | 32.80016 | -83.98221 | 29956 ft | 381 kts | 279° |
| 2026-05-07 19:39 | 32.81239 | -84.04338 | 29965 ft | 379 kts | 279° |
| 2026-05-07 19:39 | 32.82251 | -84.09403 | 29978 ft | 379 kts | 279° |
| 2026-05-07 19:40 | 32.83671 | -84.16531 | 29985 ft | 379 kts | 279° |
| 2026-05-07 19:40 | 32.84883 | -84.22634 | 29991 ft | 379 kts | 279° |
| 2026-05-07 19:41 | 32.86091 | -84.28725 | 29987 ft | 380 kts | 279° |
| 2026-05-07 19:41 | 32.87304 | -84.34865 | 29993 ft | 381 kts | 278° |
| 2026-05-07 19:42 | 32.88516 | -84.41015 | 29953 ft | 383 kts | 278° |
| 2026-05-07 19:42 | 32.89733 | -84.47201 | 29951 ft | 384 kts | 278° |
| 2026-05-07 19:43 | 32.90942 | -84.53368 | 29962 ft | 385 kts | 278° |
| 2026-05-07 19:43 | 32.92157 | -84.59580 | 29970 ft | 385 kts | 278° |
| 2026-05-07 19:44 | 32.93369 | -84.65795 | 29980 ft | 385 kts | 278° |
| 2026-05-07 19:44 | 32.94372 | -84.70954 | 29982 ft | 385 kts | 278° |
| 2026-05-07 19:45 | 32.95576 | -84.77160 | 29983 ft | 385 kts | 278° |
| 2026-05-07 19:45 | 32.96972 | -84.84376 | 29984 ft | 384 kts | 278° |
| 2026-05-07 19:46 | 32.97968 | -84.89541 | 29985 ft | 384 kts | 278° |
| 2026-05-07 19:46 | 32.99158 | -84.95731 | 29990 ft | 383 kts | 278° |
| 2026-05-07 19:47 | 33.00345 | -85.01917 | 29988 ft | 382 kts | 278° |
| 2026-05-07 19:47 | 33.01525 | -85.08088 | 29990 ft | 382 kts | 278° |
| 2026-05-07 19:48 | 33.02703 | -85.14270 | 30001 ft | 384 kts | 278° |
| 2026-05-07 19:48 | 33.03890 | -85.20516 | 29990 ft | 385 kts | 278° |
| 2026-05-07 19:49 | 33.05066 | -85.26712 | 29963 ft | 382 kts | 278° |
| 2026-05-07 19:49 | 33.06230 | -85.32861 | 29980 ft | 380 kts | 278° |
| 2026-05-07 19:50 | 33.07389 | -85.39014 | 30021 ft | 380 kts | 278° |
| 2026-05-07 19:50 | 33.08538 | -85.45126 | 29995 ft | 379 kts | 278° |
| 2026-05-07 19:51 | 33.09686 | -85.51253 | 29973 ft | 378 kts | 278° |
| 2026-05-07 19:51 | 33.10828 | -85.57360 | 29976 ft | 376 kts | 278° |
| 2026-05-07 19:52 | 33.11962 | -85.63448 | 29991 ft | 375 kts | 278° |
| 2026-05-07 19:52 | 33.13091 | -85.69522 | 29990 ft | 375 kts | 278° |
| 2026-05-07 19:53 | 33.14210 | -85.75565 | 29979 ft | 376 kts | 278° |
| 2026-05-07 19:53 | 33.15336 | -85.81660 | 29994 ft | 377 kts | 278° |
| 2026-05-07 19:54 | 33.16463 | -85.87778 | 29988 ft | 377 kts | 278° |
| 2026-05-07 19:54 | 33.17587 | -85.93895 | 29996 ft | 377 kts | 278° |
| 2026-05-07 19:55 | 33.18709 | -86.00018 | 30005 ft | 378 kts | 278° |
| 2026-05-07 19:55 | 33.19829 | -86.06151 | 29997 ft | 378 kts | 278° |
| 2026-05-07 19:56 | 33.20947 | -86.12295 | 29989 ft | 379 kts | 278° |
| 2026-05-07 19:56 | 33.22063 | -86.18441 | 30020 ft | 379 kts | 278° |
| 2026-05-07 19:57 | 33.23172 | -86.24564 | 30012 ft | 379 kts | 278° |
| 2026-05-07 19:57 | 33.24282 | -86.30715 | 30043 ft | 378 kts | 278° |
| 2026-05-07 19:58 | 33.25388 | -86.36859 | 30043 ft | 378 kts | 278° |
| 2026-05-07 19:58 | 33.26488 | -86.42990 | 30023 ft | 377 kts | 278° |
| 2026-05-07 19:59 | 33.27584 | -86.49115 | 30015 ft | 376 kts | 278° |
| 2026-05-07 19:59 | 33.28673 | -86.55224 | 30015 ft | 376 kts | 278° |
| 2026-05-07 20:00 | 33.29759 | -86.61333 | 30027 ft | 375 kts | 278° |